Погода Санта Куитерияна 2 недели

Сеара, Бразилия

24 июля-05 августа
  • 24июля
    Сегодня
    +20°
    +31°
    Ясно и безоблачно
    ВремяПогодаТемператураВлажностьДавлениеВетер, м/сВероятность осадков
    00:00Ясно и безоблачно+24°C73 %738 мм1.9 м/с5 %
    03:00Ясно и безоблачно+23°C81 %738 мм2.2 м/с5 %
    06:00Ясно и безоблачно+22°C83 %738 мм3.2 м/с3 %
    09:00Небольшая облачность+27°C53 %740 мм7.5 м/с3 %
    12:00Практически безоблачно+30°C41 %739 мм6.6 м/с5 %
    15:00Ясно и безоблачно+31°C36 %738 мм6.3 м/с5 %
    18:00Ясно и безоблачно+29°C40 %738 мм3.7 м/с5 %
    21:00Ясно и безоблачно+26°C47 %739 мм2.2 м/с5 %
  • 25июля
    Четверг
    +21°
    +32°
    Ясно и безоблачно
    ВремяПогодаТемператураВлажностьДавлениеВетер, м/сВероятность осадков
    00:00Ясно и безоблачно+23°C61 %739 мм3.4 м/с5 %
    03:00Ясно и безоблачно+22°C73 %738 мм2.4 м/с5 %
    06:00Ясно и безоблачно+21°C88 %738 мм3.3 м/с5 %
    09:00Ясно и безоблачно+27°C44 %740 мм6.9 м/с5 %
    12:00Ясно и безоблачно+30°C34 %738 мм7.3 м/с5 %
    15:00Ясно и безоблачно+31°C34 %736 мм5.8 м/с5 %
    18:00Ясно и безоблачно+29°C39 %736 мм3.6 м/с5 %
    21:00Ясно и безоблачно+26°C49 %738 мм2.0 м/с5 %
  • 26июля
    Пятница
    +22°
    +33°
    Небольшая облачность
    ВремяПогодаТемператураВлажностьДавлениеВетер, м/сВероятность осадков
    00:00Ясно и безоблачно+24°C77 %738 мм4.1 м/с5 %
    03:00Ясно и безоблачно+22°C85 %737 мм2.5 м/с5 %
    06:00Ясно и безоблачно+21°C85 %737 мм2.8 м/с4 %
    09:00Ясно и безоблачно+27°C50 %739 мм6.3 м/с5 %
    12:00Облачно с прояснениями+31°C38 %737 мм6.9 м/с5 %
    15:00Небольшая облачность+33°C33 %735 мм5.5 м/с5 %
    18:00Ясно и безоблачно+31°C38 %736 мм4.4 м/с5 %
    21:00Ясно и безоблачно+26°C54 %738 мм4.1 м/с5 %
  • 27июля
    Суббота
    +22°
    +33°
    Облачно с прояснениями
    ВремяПогодаТемператураВлажностьДавлениеВетер, м/сВероятность осадков
    00:00Ясно и безоблачно+24°C76 %738 мм4.2 м/с5 %
    03:00Ясно и безоблачно+23°C84 %737 мм2.5 м/с3 %
    06:00Ясно и безоблачно+22°C77 %738 мм3.7 м/с4 %
    09:00Ясно и безоблачно+28°C52 %739 мм6.9 м/с4 %
    12:00Практически безоблачно+32°C38 %738 мм6.6 м/с5 %
    15:00Облачно с прояснениями+32°C37 %737 мм6.0 м/с5 %
    18:00Небольшая облачность+31°C41 %737 мм4.2 м/с5 %
    21:00Ясно и безоблачно+27°C53 %738 мм2.3 м/с5 %
Мы используем cookies
Соглашаюсь